Time;durP1;ratioP1;P1;durP2;ratioP2;P2;SDS_P1;SDS_P2;PMS_P1;PMS_P2;Temp;Humidity;BMP_temperature;BMP_pressure;BME280_temperature;BME280_humidity;BME280_pressure;Samples;Min_cycle;Max_cycle;Signal;HPM_P1;HPM_P2
2021/09/02 00:00:05;;;;;;;6.47;4.03;;;;;;;14.43;96.34;101885.63;5033019;28;20270;-69
2021/09/02 00:02:31;;;;;;;5.80;4.07;;;;;;;14.35;96.87;101887.81;5032752;28;20211;-68
2021/09/02 00:04:56;;;;;;;6.30;4.10;;;;;;;14.35;96.91;101882.44;5032277;28;20591;-68
2021/09/02 00:07:22;;;;;;;6.00;4.27;;;;;;;14.43;96.37;101893.69;5033948;28;20168;-68
2021/09/02 00:09:47;;;;;;;6.30;4.27;;;;;;;14.41;96.37;101879.44;5033866;28;20209;-68
2021/09/02 00:12:12;;;;;;;6.97;4.50;;;;;;;14.37;96.06;101885.91;5036852;28;20192;-68
2021/09/02 00:14:38;;;;;;;5.53;4.00;;;;;;;14.33;96.63;101882.53;5035915;28;20203;-68
2021/09/02 00:17:03;;;;;;;12.90;4.60;;;;;;;14.35;96.41;101885.13;5037592;28;20759;-69
2021/09/02 00:19:28;;;;;;;4.83;3.90;;;;;;;14.35;96.27;101883.31;5037556;28;20287;-68
2021/09/02 00:21:54;;;;;;;8.33;3.70;;;;;;;14.34;95.81;101892.31;5035995;28;20203;-68
2021/09/02 00:24:19;;;;;;;6.83;4.63;;;;;;;14.35;95.89;101886.00;5037425;28;20627;-68
2021/09/02 00:26:44;;;;;;;5.00;3.80;;;;;;;14.38;95.28;101883.16;5036822;28;20169;-68
2021/09/02 00:29:10;;;;;;;10.07;4.37;;;;;;;14.26;95.92;101883.81;5037520;28;20179;-69
2021/09/02 00:31:35;;;;;;;12.87;3.83;;;;;;;14.28;95.95;101886.41;5037017;28;20192;-68
2021/09/02 00:34:01;;;;;;;6.37;3.87;;;;;;;14.14;97.70;101889.81;5037302;28;20274;-70
2021/09/02 00:36:26;;;;;;;11.60;4.37;;;;;;;14.20;97.17;101891.31;5036771;28;20180;-68
2021/09/02 00:38:51;;;;;;;5.63;4.30;;;;;;;14.20;97.20;101891.31;5035407;28;20192;-69
2021/09/02 00:41:17;;;;;;;5.03;3.60;;;;;;;14.22;97.47;101892.97;5036508;28;20173;-69
2021/09/02 00:43:43;;;;;;;6.73;4.20;;;;;;;14.12;97.66;101889.00;5036868;28;20203;-69
2021/09/02 00:46:10;;;;;;;6.60;4.23;;;;;;;14.05;98.91;101888.44;5035512;28;20164;-68
2021/09/02 00:48:35;;;;;;;6.63;4.23;;;;;;;14.06;98.91;101892.84;5035630;28;20164;-68
2021/09/02 00:51:00;;;;;;;8.43;4.00;;;;;;;14.12;98.76;101891.69;5035127;28;20175;-68
2021/09/02 00:53:26;;;;;;;7.23;4.40;;;;;;;14.13;98.65;101888.06;5035017;28;20564;-69
2021/09/02 00:55:51;;;;;;;5.73;4.17;;;;;;;14.10;99.02;101888.19;5034808;28;20668;-69
2021/09/02 00:58:20;;;;;;;6.43;4.20;;;;;;;14.08;99.03;101880.22;5036107;28;20675;-69
2021/09/02 01:00:46;;;;;;;5.83;4.20;;;;;;;14.03;99.25;101882.28;5034978;28;20187;-68
2021/09/02 01:03:11;;;;;;;10.27;4.87;;;;;;;13.97;100.00;101887.09;5034823;28;20215;-68
2021/09/02 01:05:36;;;;;;;12.33;4.53;;;;;;;13.96;100.00;101886.22;5036450;28;20536;-68
2021/09/02 01:08:03;;;;;;;6.80;4.20;;;;;;;13.90;100.00;101886.53;5035110;28;20676;-68
2021/09/02 01:10:28;;;;;;;6.53;4.37;;;;;;;13.82;100.00;101886.06;5034433;28;20176;-68
2021/09/02 01:12:53;;;;;;;5.37;4.47;;;;;;;13.76;100.00;101887.25;5036026;28;20200;-68
2021/09/02 01:15:24;;;;;;;7.07;4.53;;;;;;;13.72;100.00;101890.13;5036035;28;20721;-68
2021/09/02 01:17:53;;;;;;;9.37;5.00;;;;;;;13.70;100.00;101886.66;5035708;28;20171;-67
2021/09/02 01:20:20;;;;;;;7.80;4.30;;;;;;;13.70;100.00;101890.19;5034339;28;20172;-67
2021/09/02 01:22:49;;;;;;;7.17;4.50;;;;;;;13.70;100.00;101887.50;5034332;28;20250;-67
2021/09/02 01:25:17;;;;;;;6.90;4.57;;;;;;;13.70;100.00;101883.97;5035623;28;20203;-67
2021/09/02 01:27:45;;;;;;;6.30;4.33;;;;;;;13.68;100.00;101899.28;5035544;28;20172;-67
2021/09/02 01:30:13;;;;;;;7.20;5.10;;;;;;;13.71;100.00;101883.88;5034437;28;20165;-69
2021/09/02 01:32:40;;;;;;;11.30;6.17;;;;;;;13.76;100.00;101881.88;5035280;28;20283;-69
2021/09/02 01:35:07;;;;;;;7.97;5.20;;;;;;;13.75;100.00;101888.19;5035321;28;20206;-68
2021/09/02 01:37:43;;;;;;;10.97;5.17;;;;;;;13.72;100.00;101892.81;5033838;28;20714;-68
2021/09/02 01:40:14;;;;;;;14.43;5.40;;;;;;;13.67;100.00;101887.66;5035436;28;20698;-69
2021/09/02 01:42:39;;;;;;;9.17;5.70;;;;;;;13.61;100.00;101884.41;5033999;28;20660;-68
2021/09/02 01:45:05;;;;;;;10.33;5.40;;;;;;;13.55;100.00;101884.72;5035064;28;20258;-68
2021/09/02 01:47:30;;;;;;;11.83;6.00;;;;;;;13.51;100.00;101892.06;5035552;28;20198;-68
2021/09/02 01:50:04;;;;;;;11.00;5.93;;;;;;;13.42;100.00;101895.19;5034873;28;20222;-69
2021/09/02 01:52:30;;;;;;;11.80;6.10;;;;;;;13.32;100.00;101899.22;5035198;28;20207;-68
2021/09/02 01:54:55;;;;;;;10.20;6.50;;;;;;;13.24;100.00;101899.59;5035032;28;20176;-68
2021/09/02 01:57:20;;;;;;;9.17;6.73;;;;;;;13.23;100.00;101894.31;5034958;28;20223;-68
2021/09/02 01:59:46;;;;;;;9.80;6.93;;;;;;;13.22;100.00;101893.44;5034773;28;20212;-68
2021/09/02 02:02:11;;;;;;;11.07;6.13;;;;;;;13.20;100.00;101894.47;5033485;28;20278;-68
2021/09/02 02:04:36;;;;;;;13.20;6.70;;;;;;;13.16;100.00;101893.69;5034970;28;20176;-69
2021/09/02 02:07:02;;;;;;;9.37;6.43;;;;;;;13.09;100.00;101892.25;5034978;28;20228;-68
2021/09/02 02:09:27;;;;;;;10.83;6.30;;;;;;;13.07;100.00;101889.66;5034194;28;20644;-68
2021/09/02 02:11:52;;;;;;;10.23;6.50;;;;;;;13.05;100.00;101896.03;5034698;28;20196;-69
2021/09/02 02:14:18;;;;;;;7.93;6.80;;;;;;;13.04;100.00;101899.63;5033631;28;20168;-68
2021/09/02 02:16:43;;;;;;;11.73;6.57;;;;;;;13.13;100.00;101899.22;5033332;28;20164;-68
2021/09/02 02:19:08;;;;;;;8.23;6.00;;;;;;;13.27;100.00;101895.91;5034685;28;20295;-69
2021/09/02 02:21:34;;;;;;;7.83;6.17;;;;;;;13.35;100.00;101899.06;5034535;28;20200;-68
2021/09/02 02:23:59;;;;;;;7.90;5.43;;;;;;;13.40;100.00;101897.06;5034333;28;20168;-68
2021/09/02 02:26:24;;;;;;;7.97;5.40;;;;;;;13.37;100.00;101898.06;5034229;28;20230;-68
2021/09/02 02:28:49;;;;;;;9.27;5.97;;;;;;;13.35;100.00;101894.59;5034302;28;20179;-68
2021/09/02 02:31:15;;;;;;;9.67;6.10;;;;;;;13.33;100.00;101903.66;5032956;28;20598;-69
2021/09/02 02:33:40;;;;;;;9.77;5.90;;;;;;;13.22;100.00;101898.81;5034679;28;20258;-69
2021/09/02 02:36:05;;;;;;;11.13;7.77;;;;;;;13.19;100.00;101901.63;5034575;28;20172;-69
2021/09/02 02:38:31;;;;;;;14.93;9.23;;;;;;;13.27;100.00;101907.50;5034250;28;20204;-69
2021/09/02 02:40:56;;;;;;;12.30;8.93;;;;;;;13.34;100.00;101900.03;5032754;28;20180;-68
2021/09/02 02:43:21;;;;;;;13.57;7.50;;;;;;;13.39;100.00;101906.06;5033498;28;20192;-67
2021/09/02 02:45:47;;;;;;;10.03;7.20;;;;;;;13.43;100.00;101900.47;5034349;28;20180;-69
2021/09/02 02:48:12;;;;;;;12.87;8.20;;;;;;;13.53;100.00;101902.72;5034333;28;20180;-67
2021/09/02 02:50:37;;;;;;;12.83;7.53;;;;;;;13.59;100.00;101894.34;5034686;28;20184;-69
2021/09/02 02:53:02;;;;;;;16.87;9.90;;;;;;;13.63;100.00;101898.63;5035042;28;20271;-68
2021/09/02 02:55:28;;;;;;;15.10;10.10;;;;;;;13.67;100.00;101908.25;5034075;28;20172;-68
2021/09/02 02:57:54;;;;;;;17.73;10.17;;;;;;;13.74;100.00;101910.56;5032488;28;20188;-68
2021/09/02 03:00:19;;;;;;;19.97;9.77;;;;;;;13.75;100.00;101903.38;5034086;28;20176;-68
2021/09/02 03:02:44;;;;;;;14.33;8.87;;;;;;;13.76;100.00;101905.16;5032517;28;20208;-68
2021/09/02 03:05:10;;;;;;;13.67;9.87;;;;;;;13.79;100.00;101910.38;5033819;28;20540;-68
2021/09/02 03:07:35;;;;;;;13.60;8.50;;;;;;;13.80;100.00;101904.06;5033604;28;20180;-68
2021/09/02 03:10:05;;;;;;;17.37;10.60;;;;;;;13.99;100.00;101899.50;5032358;28;20176;-68
2021/09/02 03:12:31;;;;;;;15.50;9.43;;;;;;;14.05;100.00;101906.38;5033981;28;20187;-68
2021/09/02 03:14:56;;;;;;;21.03;10.87;;;;;;;14.05;100.00;101907.22;5032573;28;20553;-68
2021/09/02 03:17:21;;;;;;;19.57;12.00;;;;;;;14.06;100.00;101903.59;5034413;28;20176;-68
2021/09/02 03:19:47;;;;;;;20.57;11.97;;;;;;;14.09;100.00;101906.13;5034624;28;20196;-67
2021/09/02 03:22:12;;;;;;;18.53;10.63;;;;;;;14.07;100.00;101908.03;5034143;28;20199;-67
2021/09/02 03:24:37;;;;;;;19.83;10.93;;;;;;;14.02;100.00;101903.84;5034539;28;20176;-67
2021/09/02 03:27:03;;;;;;;16.40;10.17;;;;;;;14.02;100.00;101903.84;5033351;28;20172;-67
2021/09/02 03:29:28;;;;;;;19.67;10.53;;;;;;;13.99;100.00;101910.22;5033566;28;20195;-68
2021/09/02 03:31:53;;;;;;;17.33;9.97;;;;;;;13.99;100.00;101912.91;5033143;28;20196;-68
2021/09/02 03:34:19;;;;;;;17.97;10.03;;;;;;;14.01;100.00;101911.03;5032030;28;20302;-68
2021/09/02 03:36:47;;;;;;;18.30;10.00;;;;;;;14.06;100.00;101913.47;5033381;28;20548;-69
2021/09/02 03:39:13;;;;;;;24.03;12.83;;;;;;;14.05;100.00;101912.59;5031701;28;20286;-68
2021/09/02 03:41:42;;;;;;;22.17;12.10;;;;;;;14.00;100.00;101914.66;5033009;28;20200;-69
2021/09/02 03:44:07;;;;;;;22.57;12.60;;;;;;;14.02;100.00;101910.06;5033178;28;20173;-69
2021/09/02 03:46:32;;;;;;;24.30;13.03;;;;;;;14.01;100.00;101915.50;5032212;28;20259;-68
2021/09/02 03:48:58;;;;;;;27.07;15.27;;;;;;;14.03;100.00;101914.50;5033696;28;20278;-70
2021/09/02 03:51:23;;;;;;;31.27;15.37;;;;;;;14.06;100.00;101913.47;5032078;28;20176;-70
2021/09/02 03:53:48;;;;;;;30.37;16.30;;;;;;;14.08;100.00;101911.56;5032289;28;20264;-69
2021/09/02 03:56:14;;;;;;;31.67;16.23;;;;;;;14.05;100.00;101911.72;5033360;28;20183;-69
2021/09/02 03:58:39;;;;;;;25.17;16.53;;;;;;;14.00;100.00;101916.47;5032072;28;20560;-69
2021/09/02 04:01:04;;;;;;;28.63;17.60;;;;;;;14.11;100.00;101913.22;5033855;28;20180;-69
2021/09/02 04:03:29;;;;;;;31.00;17.50;;;;;;;14.14;100.00;101910.41;5055392;22;20232;-71
2021/09/02 04:05:55;;;;;;;35.40;18.77;;;;;;;14.14;100.00;101902.38;5032574;28;20180;-71
2021/09/02 04:08:20;;;;;;;31.67;18.63;;;;;;;14.06;100.00;101908.97;5032561;28;20172;-72
2021/09/02 04:10:45;;;;;;;31.10;19.00;;;;;;;14.07;100.00;101902.66;5031472;28;20180;-74
2021/09/02 04:13:11;;;;;;;31.77;18.80;;;;;;;14.13;100.00;101908.69;5031352;28;20196;-74
2021/09/02 04:15:36;;;;;;;42.70;19.07;;;;;;;13.89;100.00;101911.63;5031805;28;20183;-74
2021/09/02 04:18:01;;;;;;;35.53;19.17;;;;;;;13.86;100.00;101911.78;5031883;28;20180;-74
2021/09/02 04:20:27;;;;;;;35.17;19.37;;;;;;;13.95;100.00;101914.00;5032119;28;20691;-73
2021/09/02 04:22:52;;;;;;;33.87;19.87;;;;;;;14.00;100.00;101917.34;5032565;28;20610;-74
2021/09/02 04:25:17;;;;;;;36.13;19.47;;;;;;;14.09;100.00;101916.88;5035599;28;20637;-74
2021/09/02 04:27:42;;;;;;;32.60;19.13;;;;;;;13.94;100.00;101916.78;5040783;28;20185;-74
2021/09/02 04:30:08;;;;;;;33.37;18.73;;;;;;;13.92;100.00;101921.34;5041455;28;20177;-73
2021/09/02 04:32:33;;;;;;;36.90;18.43;;;;;;;13.91;100.00;101917.78;5041213;28;20213;-74
2021/09/02 04:34:59;;;;;;;32.03;18.17;;;;;;;13.98;100.00;101921.03;5032609;28;20184;-74
2021/09/02 04:37:24;;;;;;;31.03;18.40;;;;;;;14.03;100.00;101919.84;5031582;28;20177;-74
2021/09/02 04:39:49;;;;;;;29.47;16.83;;;;;;;14.08;100.00;101919.63;5032204;28;20196;-73
2021/09/02 04:42:15;;;;;;;26.10;17.07;;;;;;;14.19;100.00;101919.97;5031991;28;20195;-73
2021/09/02 04:44:40;;;;;;;30.50;15.20;;;;;;;14.31;100.00;101926.53;5032145;28;20184;-74
2021/09/02 04:47:05;;;;;;;32.23;16.47;;;;;;;14.49;100.00;101917.53;5031914;28;20639;-73
2021/09/02 04:49:30;;;;;;;29.07;14.60;;;;;;;14.39;100.00;101927.00;5031487;28;20260;-73
2021/09/02 04:51:56;;;;;;;24.03;13.60;;;;;;;14.35;100.00;101926.28;5032725;28;20295;-73
2021/09/02 04:54:21;;;;;;;32.17;14.97;;;;;;;14.23;100.00;101924.25;5031149;28;20216;-73
2021/09/02 04:56:46;;;;;;;27.70;14.77;;;;;;;14.08;100.00;101935.72;5033160;28;20225;-72
2021/09/02 04:59:12;;;;;;;29.37;14.13;;;;;;;14.05;100.00;101936.75;5036385;28;20208;-69
2021/09/02 05:01:37;;;;;;;28.67;13.03;;;;;;;14.08;100.00;101928.53;5034532;28;20180;-67
2021/09/02 05:04:03;;;;;;;27.30;13.23;;;;;;;14.11;100.00;101938.25;5036678;28;20180;-70
2021/09/02 05:06:28;;;;;;;22.23;12.00;;;;;;;14.22;100.00;101937.75;5043174;28;20183;-70
2021/09/02 05:08:53;;;;;;;21.87;12.40;;;;;;;14.32;100.00;101936.31;5042383;28;20176;-71
2021/09/02 05:11:18;;;;;;;24.83;11.40;;;;;;;14.35;100.00;101941.53;5037628;28;20587;-71
2021/09/02 05:13:44;;;;;;;23.10;11.87;;;;;;;14.32;100.00;101942.56;5036050;28;20594;-70
2021/09/02 05:16:09;;;;;;;27.17;12.17;;;;;;;14.32;100.00;101944.38;5036292;28;20191;-71
2021/09/02 05:18:34;;;;;;;19.20;12.17;;;;;;;14.37;100.00;101943.19;5038134;28;20227;-68
2021/09/02 05:21:00;;;;;;;23.90;12.30;;;;;;;14.39;100.00;101945.78;5045069;28;20551;-69
2021/09/02 05:23:25;;;;;;;22.07;11.30;;;;;;;14.39;100.00;101948.47;5040224;28;20689;-71
2021/09/02 05:25:50;;;;;;;19.17;10.97;;;;;;;14.46;100.00;101958.00;5037162;28;20176;-73
2021/09/02 05:28:15;;;;;;;16.00;10.60;;;;;;;14.36;100.00;101952.19;5020659;28;20205;-71
2021/09/02 05:30:41;;;;;;;19.17;10.63;;;;;;;14.32;100.00;101953.31;5037261;28;20184;-71
2021/09/02 05:33:06;;;;;;;18.63;11.10;;;;;;;14.27;100.00;101949.97;5036992;28;20636;-72
2021/09/02 05:35:31;;;;;;;22.13;10.73;;;;;;;14.33;100.00;101963.09;5037892;28;20176;-73
2021/09/02 05:37:57;;;;;;;23.47;10.90;;;;;;;14.37;100.00;101958.44;5019351;28;20279;-72
2021/09/02 05:40:22;;;;;;;17.03;9.80;;;;;;;14.50;100.00;101956.91;5036859;28;20208;-72
2021/09/02 05:42:47;;;;;;;21.53;11.13;;;;;;;14.46;100.00;101960.69;5035822;28;20283;-70
2021/09/02 05:45:13;;;;;;;20.20;10.60;;;;;;;14.66;100.00;101965.91;5035619;28;20185;-73
2021/09/02 05:47:38;;;;;;;18.27;10.80;;;;;;;14.60;100.00;101958.16;5036503;28;20714;-73
2021/09/02 05:50:04;;;;;;;23.73;10.23;;;;;;;14.48;100.00;101960.59;5036189;28;20714;-71
2021/09/02 05:52:30;;;;;;;16.70;10.13;;;;;;;14.72;100.00;101964.72;5035156;28;20325;-72
2021/09/02 05:54:55;;;;;;;18.83;9.83;;;;;;;14.89;100.00;101958.47;5035333;28;20188;-71
2021/09/02 05:57:21;;;;;;;22.00;10.33;;;;;;;14.91;100.00;101967.31;5035735;28;20184;-71
2021/09/02 05:59:47;;;;;;;19.10;9.10;;;;;;;14.94;100.00;101961.78;5034726;28;20204;-71
2021/09/02 06:02:12;;;;;;;17.57;8.90;;;;;;;14.62;100.00;101968.84;5017917;28;20215;-71
2021/09/02 06:04:37;;;;;;;20.70;9.20;;;;;;;14.55;100.00;101965.59;5034838;28;20243;-71
2021/09/02 06:07:03;;;;;;;37.27;19.70;;;;;;;14.89;100.00;101955.78;5033905;28;20176;-71
2021/09/02 06:09:28;;;;;;;23.43;10.20;;;;;;;15.01;100.00;101963.19;5034112;28;20282;-71
2021/09/02 06:11:54;;;;;;;18.57;9.13;;;;;;;15.01;100.00;101963.19;5034614;28;20237;-73
2021/09/02 06:14:19;;;;;;;17.03;9.10;;;;;;;14.88;100.00;101962.97;5034246;28;20176;-71
2021/09/02 06:16:44;;;;;;;18.73;9.43;;;;;;;14.64;100.00;101965.13;5034699;28;20176;-72
2021/09/02 06:19:09;;;;;;;16.60;9.87;;;;;;;14.50;100.00;101967.66;5034885;28;20211;-71
2021/09/02 06:21:35;;;;;;;15.70;9.97;;;;;;;14.68;100.00;101972.06;5033798;28;20179;-71
2021/09/02 06:24:00;;;;;;;14.17;8.77;;;;;;;14.97;100.00;101962.47;5033816;28;20196;-71
2021/09/02 06:26:25;;;;;;;16.97;8.87;;;;;;;15.24;99.10;101970.88;5033731;28;20191;-70
2021/09/02 06:28:51;;;;;;;19.47;9.60;;;;;;;15.18;98.52;101981.94;5033739;28;20230;-72
2021/09/02 06:31:16;;;;;;;16.67;8.90;;;;;;;15.08;99.13;101975.34;5033908;28;20180;-72
2021/09/02 06:33:41;;;;;;;14.57;8.90;;;;;;;15.15;99.56;101981.25;5034466;28;20595;-72
2021/09/02 06:36:07;;;;;;;14.40;8.70;;;;;;;15.08;98.08;101986.09;5034155;28;20200;-73
2021/09/02 06:38:32;;;;;;;17.03;8.07;;;;;;;15.00;98.18;101993.69;5034071;28;20254;-72
2021/09/02 06:40:57;;;;;;;12.53;7.37;;;;;;;14.90;100.00;101992.47;5033971;28;20180;-69
2021/09/02 06:43:23;;;;;;;18.97;8.03;;;;;;;15.08;97.44;101982.53;5035040;28;20714;-72
2021/09/02 06:45:48;;;;;;;13.07;7.30;;;;;;;15.11;96.68;101985.91;5034587;28;20595;-72
2021/09/02 06:48:13;;;;;;;15.57;7.63;;;;;;;15.18;96.47;101983.75;5035140;28;20208;-69
2021/09/02 06:50:38;;;;;;;12.87;6.83;;;;;;;15.20;95.37;101985.41;5033456;28;20188;-72
2021/09/02 06:53:04;;;;;;;12.00;6.77;;;;;;;15.24;96.08;101992.41;5035344;28;20275;-70
2021/09/02 06:55:29;;;;;;;14.63;7.40;;;;;;;14.89;98.75;101985.34;5033851;28;20168;-72
2021/09/02 06:57:54;;;;;;;15.67;7.37;;;;;;;14.68;98.83;101998.06;5035163;28;20172;-71
2021/09/02 07:00:20;;;;;;;10.93;6.77;;;;;;;14.89;98.89;101993.41;5033998;28;20231;-71
2021/09/02 07:02:45;;;;;;;12.83;6.50;;;;;;;14.91;99.23;101994.19;5034874;28;20212;-71
2021/09/02 07:05:11;;;;;;;11.17;6.23;;;;;;;15.43;95.28;101992.25;5035768;28;20175;-71
2021/09/02 07:07:36;;;;;;;13.03;7.03;;;;;;;15.03;96.90;101998.91;5033548;28;20179;-71
2021/09/02 07:10:03;;;;;;;14.33;6.77;;;;;;;15.54;93.74;102000.59;5016491;28;20172;-73
2021/09/02 07:12:29;;;;;;;12.37;6.10;;;;;;;15.41;96.28;102009.44;5032791;28;20199;-71
2021/09/02 07:14:54;;;;;;;11.03;6.70;;;;;;;15.33;95.72;102012.53;5034197;28;20172;-71
2021/09/02 07:17:19;;;;;;;12.20;7.07;;;;;;;15.35;95.40;102015.16;5032916;28;20210;-71
2021/09/02 07:19:45;;;;;;;11.17;7.00;;;;;;;15.41;94.70;102017.50;5032489;28;20649;-71
2021/09/02 07:22:10;;;;;;;18.70;7.90;;;;;;;15.14;96.46;102020.72;5016680;28;20564;-72
2021/09/02 07:24:35;;;;;;;13.63;7.00;;;;;;;15.16;96.95;102026.00;5033799;28;20263;-71
2021/09/02 07:27:01;;;;;;;16.23;7.27;;;;;;;15.12;97.11;102024.44;5034163;28;20266;-69
2021/09/02 07:29:26;;;;;;;12.40;6.97;;;;;;;15.69;94.43;102031.22;5016485;28;20204;-71
2021/09/02 07:31:51;;;;;;;12.93;7.03;;;;;;;16.00;92.09;102024.13;5032691;28;20180;-71
2021/09/02 07:34:17;;;;;;;10.73;6.30;;;;;;;16.05;92.00;102030.13;5032430;28;20184;-70
2021/09/02 07:36:44;;;;;;;13.10;7.33;;;;;;;15.52;96.03;102021.34;5015891;28;20212;-72
2021/09/02 07:39:09;;;;;;;15.80;6.70;;;;;;;15.79;94.63;102029.75;5032232;28;20659;-71
2021/09/02 07:41:34;;;;;;;15.60;6.47;;;;;;;16.20;92.04;102026.53;5015731;28;20262;-73
2021/09/02 07:44:00;;;;;;;15.57;6.60;;;;;;;16.27;91.99;102022.50;5032172;28;20271;-73
2021/09/02 07:46:25;;;;;;;15.00;6.77;;;;;;;16.35;92.01;102032.84;5033066;28;20254;-72
2021/09/02 07:48:51;;;;;;;12.03;6.03;;;;;;;16.55;90.76;102033.44;5032911;28;20222;-71
2021/09/02 07:51:17;;;;;;;9.73;5.57;;;;;;;16.72;88.16;102029.75;5032095;28;20208;-71
2021/09/02 07:53:43;;;;;;;9.97;5.13;;;;;;;16.73;87.89;102036.03;5032191;28;20192;-71
2021/09/02 07:56:08;;;;;;;9.30;5.23;;;;;;;16.69;87.81;102031.75;5032572;28;20172;-71
2021/09/02 07:58:33;;;;;;;12.33;4.70;;;;;;;16.84;87.30;102033.56;5032602;28;20196;-71
2021/09/02 08:01:00;;;;;;;14.30;5.63;;;;;;;16.53;87.20;102039.88;5032553;28;20632;-71
2021/09/02 08:03:25;;;;;;;14.13;5.77;;;;;;;16.83;86.98;102034.53;5031871;28;20283;-72
2021/09/02 08:05:51;;;;;;;8.27;4.63;;;;;;;16.96;86.19;102046.28;5015438;28;20214;-70
2021/09/02 08:08:19;;;;;;;14.10;5.13;;;;;;;16.46;89.58;102036.66;5031802;28;20525;-71
2021/09/02 08:10:45;;;;;;;8.53;4.40;;;;;;;16.81;87.40;102045.41;5032117;28;20163;-71
2021/09/02 08:13:11;;;;;;;12.97;4.67;;;;;;;16.93;86.04;102054.56;5015284;28;20223;-71
2021/09/02 08:15:36;;;;;;;16.20;5.67;;;;;;;16.65;87.48;102049.91;5032084;28;20254;-71
2021/09/02 08:18:02;;;;;;;10.10;4.47;;;;;;;16.74;85.14;102054.81;5032601;28;20173;-71
2021/09/02 08:20:28;;;;;;;9.33;4.53;;;;;;;17.28;83.52;102055.13;5032066;28;20266;-71
2021/09/02 08:22:53;;;;;;;10.57;5.23;;;;;;;16.38;86.24;102065.91;5031826;28;20711;-70
2021/09/02 08:25:19;;;;;;;11.73;5.20;;;;;;;16.65;85.19;102055.31;5032824;28;20199;-72
2021/09/02 08:27:45;;;;;;;8.23;4.63;;;;;;;17.17;83.18;102058.47;5031748;28;20244;-70
2021/09/02 08:30:12;;;;;;;12.50;4.43;;;;;;;16.98;83.59;102056.97;5033103;28;20203;-71
2021/09/02 08:32:37;;;;;;;9.63;4.23;;;;;;;17.47;83.37;102054.84;5035975;28;20287;-71
2021/09/02 08:35:03;;;;;;;11.60;4.93;;;;;;;17.62;81.50;102055.72;5036293;28;20214;-72
2021/09/02 08:37:28;;;;;;;9.13;4.20;;;;;;;17.63;80.84;102060.16;5019365;28;20180;-70
2021/09/02 08:39:54;;;;;;;11.47;4.53;;;;;;;17.00;83.33;102055.94;5035028;28;20208;-70
2021/09/02 08:42:19;;;;;;;8.03;3.70;;;;;;;17.69;82.01;102049.00;5035265;28;20196;-71
2021/09/02 08:44:45;;;;;;;9.13;3.60;;;;;;;18.51;78.42;102048.97;5035070;28;20168;-71
2021/09/02 08:47:11;;;;;;;10.80;4.60;;;;;;;18.64;76.84;102044.53;5035150;28;20179;-71
2021/09/02 08:49:37;;;;;;;9.83;4.27;;;;;;;17.70;79.60;102045.31;5036281;28;20532;-71
2021/09/02 08:52:04;;;;;;;10.77;4.23;;;;;;;17.88;79.16;102054.97;5018160;28;20192;-71
2021/09/02 08:54:31;;;;;;;8.40;3.80;;;;;;;18.00;79.76;102048.75;5035144;28;20179;-70
2021/09/02 08:56:57;;;;;;;9.07;4.10;;;;;;;18.74;75.62;102050.19;5035258;28;20230;-70
2021/09/02 08:59:22;;;;;;;7.70;4.03;;;;;;;18.94;75.43;102051.50;5035998;28;20270;-71
2021/09/02 09:01:49;;;;;;;12.00;4.97;;;;;;;18.92;75.18;102057.03;5034879;28;20218;-71
2021/09/02 09:04:15;;;;;;;12.93;4.97;;;;;;;18.67;74.76;102059.69;5035228;28;20506;-71
2021/09/02 09:06:41;;;;;;;8.97;4.63;;;;;;;18.44;76.28;102062.03;5034768;28;20164;-71
2021/09/02 09:09:14;;;;;;;8.63;4.00;;;;;;;17.23;82.30;102056.38;5036529;28;20180;-72
2021/09/02 09:11:48;;;;;;;9.80;4.23;;;;;;;18.28;77.37;102058.63;5035843;28;20204;-71
2021/09/02 09:14:17;;;;;;;12.33;4.43;;;;;;;18.61;76.85;102057.38;5022835;28;20172;-71
2021/09/02 09:16:47;;;;;;;12.00;4.10;;;;;;;18.72;76.41;102055.69;5041109;28;20168;-70
2021/09/02 09:19:39;;;;;;;10.50;4.60;;;;;;;18.57;75.71;102061.22;5040879;28;20196;-70
2021/09/02 09:22:06;;;;;;;9.57;3.80;;;;;;;18.37;76.65;102051.75;5043889;28;20188;-70
2021/09/02 09:24:55;;;;;;;8.80;4.83;;;;;;;18.34;76.28;102058.22;5023569;28;20176;-69
2021/09/02 09:27:22;;;;;;;11.90;4.53;;;;;;;18.35;77.84;102051.84;5034706;28;20199;-71
2021/09/02 09:30:04;;;;;;;11.07;5.17;;;;;;;18.00;79.44;102056.88;5036153;28;20184;-71
2021/09/02 09:32:46;;;;;;;9.37;3.67;;;;;;;18.52;76.84;102053.41;5017850;28;20195;-71
2021/09/02 09:35:15;;;;;;;8.33;4.10;;;;;;;18.43;76.31;102062.16;5034757;28;20153;-71
2021/09/02 09:37:41;;;;;;;9.30;4.50;;;;;;;18.32;77.08;102060.16;5017758;28;20172;-72
2021/09/02 09:40:24;;;;;;;10.00;4.33;;;;;;;18.31;77.19;102052.16;5034735;28;20563;-73
2021/09/02 09:42:58;;;;;;;9.87;4.70;;;;;;;18.22;78.23;102048.25;5017413;28;20203;-73
2021/09/02 09:45:34;;;;;;;9.47;4.63;;;;;;;18.31;77.86;102049.47;5035092;28;20231;-74
2021/09/02 09:47:59;;;;;;;9.57;4.90;;;;;;;18.06;77.96;102055.59;5018040;28;20179;-74
2021/09/02 09:50:24;;;;;;;10.03;4.97;;;;;;;18.59;77.39;102057.47;5034407;28;20636;-73
2021/09/02 09:52:50;;;;;;;11.93;4.40;;;;;;;18.58;75.96;102061.13;5034289;28;20199;-74
2021/09/02 09:55:16;;;;;;;11.50;4.63;;;;;;;18.57;75.63;102053.09;5034252;28;20179;-74
2021/09/02 09:57:43;;;;;;;12.47;4.90;;;;;;;18.53;76.18;102054.28;5018491;28;20223;-74
2021/09/02 10:00:11;;;;;;;9.50;4.53;;;;;;;18.27;76.44;102053.34;5017542;28;20204;-74
2021/09/02 10:02:38;;;;;;;11.90;4.73;;;;;;;18.24;76.89;102043.59;5059848;22;20218;-68
2021/09/02 10:05:08;;;;;;;9.40;4.50;;;;;;;18.22;77.07;102042.84;5053647;28;20178;-68
2021/09/02 10:07:35;;;;;;;11.13;4.60;;;;;;;18.18;76.91;102048.50;5053600;28;20180;-68
2021/09/02 10:10:01;;;;;;;9.90;4.33;;;;;;;18.46;76.82;102050.25;5053326;28;20168;-67
2021/09/02 10:12:27;;;;;;;12.50;4.33;;;;;;;18.53;76.24;102048.88;5053455;28;20286;-67
2021/09/02 10:14:53;;;;;;;8.63;3.93;;;;;;;18.56;75.62;102043.25;5054584;28;20172;-68
2021/09/02 10:17:18;;;;;;;11.20;4.60;;;;;;;18.62;75.02;102043.78;5053460;28;20596;-68
2021/09/02 10:19:45;;;;;;;11.37;4.13;;;;;;;18.66;73.56;102045.28;5054600;28;20278;-68
2021/09/02 10:22:11;;;;;;;9.73;4.40;;;;;;;18.90;73.87;102044.56;5054444;28;20172;-69
2021/09/02 10:24:39;;;;;;;11.13;4.17;;;;;;;18.87;73.82;102050.19;5036587;28;20182;-68
2021/09/02 10:27:25;;;;;;;8.63;3.93;;;;;;;18.95;74.32;102048.69;5053190;28;20210;-68
2021/09/02 10:29:52;;;;;;;12.70;4.17;;;;;;;19.13;73.15;102046.56;5045663;28;20179;-68
2021/09/02 10:32:23;;;;;;;10.07;3.83;;;;;;;19.25;73.42;102052.94;5052957;28;20203;-68
2021/09/02 10:34:49;;;;;;;5.13;3.63;;;;;;;19.07;75.91;102054.25;5052939;28;20183;-68
2021/09/02 10:37:33;;;;;;;11.60;4.50;;;;;;;19.48;73.10;102046.78;5053219;28;20182;-68
2021/09/02 10:39:58;;;;;;;6.53;4.10;;;;;;;19.51;72.65;102045.69;5053992;28;20206;-68
2021/09/02 10:42:51;;;;;;;7.17;3.80;;;;;;;19.53;71.55;102032.94;5052830;28;20563;-67
2021/09/02 10:45:26;;;;;;;9.87;4.40;;;;;;;19.45;70.79;102035.31;5053282;28;20695;-67
2021/09/02 10:47:52;;;;;;;7.63;3.77;;;;;;;19.48;71.76;102035.09;5053260;28;20576;-67
2021/09/02 10:50:21;;;;;;;7.30;3.47;;;;;;;19.79;70.81;102028.38;5053439;28;20176;-67
2021/09/02 10:52:46;;;;;;;8.40;3.93;;;;;;;19.71;70.87;102041.63;5052670;28;20199;-67
2021/09/02 10:55:32;;;;;;;13.17;3.67;;;;;;;19.76;70.20;102043.00;5053528;28;20171;-67
2021/09/02 10:58:00;;;;;;;9.73;3.67;;;;;;;20.06;70.68;102039.88;5052896;28;20627;-67
2021/09/02 11:00:34;;;;;;;9.90;4.27;;;;;;;21.77;64.77;102046.50;5053565;28;20274;-67
2021/09/02 11:03:11;;;;;;;9.70;3.90;;;;;;;23.53;59.31;102050.69;5056289;28;20210;-67
2021/09/02 11:05:36;;;;;;;7.50;3.67;;;;;;;24.46;56.70;102050.44;5053786;28;20248;-67
2021/09/02 11:08:02;;;;;;;10.03;3.20;;;;;;;25.28;54.58;102058.22;5053688;28;20647;-67
2021/09/02 11:10:27;;;;;;;9.93;4.23;;;;;;;25.87;52.81;102044.19;5053879;28;20248;-68